Time;durP1;ratioP1;P1;durP2;ratioP2;P2;SDS_P1;SDS_P2;PMS_P1;PMS_P2;Temp;Humidity;BMP_temperature;BMP_pressure;BME280_temperature;BME280_humidity;BME280_pressure;Samples;Min_cycle;Max_cycle;Signal;HPM_P1;HPM_P2
2022/11/18 00:00:44;;;;;;;2.25;1.77;;;16.90;63.70;;;;;;5053480;28;20539;-68
2022/11/18 00:03:10;;;;;;;1.90;1.48;;;16.80;63.70;;;;;;5054533;28;20175;-68
2022/11/18 00:05:35;;;;;;;2.33;1.73;;;16.80;63.80;;;;;;5054029;28;20167;-68
2022/11/18 00:08:01;;;;;;;2.25;1.73;;;16.80;63.80;;;;;;5053559;28;20171;-69
2022/11/18 00:10:26;;;;;;;1.58;1.23;;;16.80;63.90;;;;;;5054439;28;20167;-68
2022/11/18 00:15:36;;;;;;;2.05;1.70;;;16.80;64.00;;;;;;5052931;28;20257;-68
2022/11/18 00:18:01;;;;;;;2.80;1.90;;;16.70;63.90;;;;;;5053982;28;20713;-67
2022/11/18 00:20:27;;;;;;;2.20;1.80;;;16.70;63.80;;;;;;5053757;28;20276;-67
2022/11/18 00:22:52;;;;;;;2.50;1.98;;;16.70;63.80;;;;;;5053302;28;20262;-68
2022/11/18 00:25:18;;;;;;;1.80;1.50;;;16.70;63.90;;;;;;5054167;28;20266;-68
2022/11/18 00:27:43;;;;;;;4.03;1.98;;;16.60;63.80;;;;;;5053555;28;20175;-69
2022/11/18 00:30:10;;;;;;;2.33;1.88;;;16.60;63.90;;;;;;5053388;28;20184;-69
2022/11/18 00:32:35;;;;;;;2.22;1.63;;;16.60;63.90;;;;;;5053587;28;20202;-69
2022/11/18 00:35:01;;;;;;;2.08;1.30;;;16.60;63.90;;;;;;5052701;28;20202;-68
2022/11/18 00:37:26;;;;;;;1.77;1.45;;;16.60;64.00;;;;;;5053755;28;20597;-68
2022/11/18 00:39:52;;;;;;;1.83;1.73;;;16.60;63.70;;;;;;5053333;28;20799;-68
2022/11/18 00:45:01;;;;;;;2.45;1.63;;;16.60;63.90;;;;;;5053452;28;20177;-68
2022/11/18 00:47:27;;;;;;;2.85;1.88;;;16.50;63.70;;;;;;5053509;28;20250;-68
2022/11/18 00:49:52;;;;;;;2.22;1.73;;;16.50;63.90;;;;;;5052963;28;20175;-68
2022/11/18 00:52:18;;;;;;;2.65;1.70;;;16.50;64.00;;;;;;5053721;28;20643;-68
2022/11/18 00:54:43;;;;;;;1.65;1.55;;;16.50;64.10;;;;;;5053220;28;20162;-68
2022/11/18 00:57:09;;;;;;;2.28;1.48;;;16.50;64.10;;;;;;5052837;28;20175;-68
2022/11/18 00:59:34;;;;;;;1.60;1.50;;;16.50;64.20;;;;;;5053137;28;20210;-68
2022/11/18 01:02:00;;;;;;;2.42;1.88;;;16.50;64.10;;;;;;5053188;28;20635;-68
2022/11/18 01:04:25;;;;;;;1.50;1.33;;;16.50;64.10;;;;;;5052803;28;20186;-68
2022/11/18 01:06:51;;;;;;;2.22;1.50;;;16.50;64.20;;;;;;5052817;28;20221;-69
2022/11/18 01:09:16;;;;;;;2.30;1.45;;;16.40;64.10;;;;;;5053256;28;20175;-69
2022/11/18 01:14:26;;;;;;;1.52;1.42;;;16.40;64.10;;;;;;5052958;28;20222;-67
2022/11/18 01:16:55;;;;;;;2.95;1.77;;;16.40;64.20;;;;;;5052544;28;20167;-68
2022/11/18 01:19:21;;;;;;;1.52;1.40;;;16.40;64.20;;;;;;5052347;28;20219;-67
2022/11/18 01:21:46;;;;;;;2.17;1.45;;;16.40;64.20;;;;;;5052623;28;20179;-67
2022/11/18 01:24:12;;;;;;;1.98;1.67;;;16.40;64.20;;;;;;5052603;28;20179;-68
2022/11/18 01:26:38;;;;;;;2.08;1.83;;;16.40;64.30;;;;;;5053679;28;20172;-68
2022/11/18 01:29:03;;;;;;;2.40;1.40;;;16.40;64.20;;;;;;5053487;28;20171;-69
2022/11/18 01:31:29;;;;;;;1.30;1.20;;;16.40;64.30;;;;;;5052842;28;20563;-68
2022/11/18 01:33:54;;;;;;;1.38;1.27;;;16.40;64.30;;;;;;5053589;28;20172;-68
2022/11/18 01:36:25;;;;;;;1.83;1.67;;;16.40;64.30;;;;;;5051288;28;20252;-67
2022/11/18 01:38:50;;;;;;;1.63;1.52;;;16.30;64.20;;;;;;5052084;28;20261;-68
2022/11/18 01:41:16;;;;;;;1.50;1.30;;;16.30;64.20;;;;;;5052540;28;20171;-68
2022/11/18 01:43:52;;;;;;;1.50;1.40;;;16.30;64.30;;;;;;5052739;28;20202;-68
2022/11/18 01:46:18;;;;;;;1.75;1.60;;;16.30;64.30;;;;;;5051755;28;20257;-69
2022/11/18 01:48:44;;;;;;;2.08;1.50;;;16.30;64.20;;;;;;5052766;28;20372;-68
2022/11/18 01:51:11;;;;;;;2.13;1.40;;;16.30;64.30;;;;;;5051159;28;20174;-69
2022/11/18 01:53:42;;;;;;;1.83;1.30;;;16.30;64.30;;;;;;5050748;28;20547;-68
2022/11/18 01:56:12;;;;;;;1.67;1.42;;;16.40;64.30;;;;;;5051669;28;20171;-68
2022/11/18 01:58:43;;;;;;;1.83;1.60;;;16.30;64.30;;;;;;5051529;28;20211;-68
2022/11/18 02:01:08;;;;;;;1.60;1.50;;;16.30;64.30;;;;;;5050578;28;20191;-67
2022/11/18 02:03:34;;;;;;;2.65;1.70;;;16.30;64.30;;;;;;5051465;28;20308;-68
2022/11/18 02:06:00;;;;;;;1.73;1.48;;;16.20;64.20;;;;;;5052341;28;20262;-68
2022/11/18 02:08:25;;;;;;;4.00;1.65;;;16.20;64.10;;;;;;5051938;28;20254;-68
2022/11/18 02:10:51;;;;;;;2.75;1.63;;;16.20;64.10;;;;;;5050991;28;20191;-68
2022/11/18 02:13:16;;;;;;;1.42;1.30;;;16.20;64.20;;;;;;5052086;28;20246;-67
2022/11/18 02:16:06;;;;;;;1.67;1.42;;;16.30;64.20;;;;;;5050675;28;20609;-67
2022/11/18 02:18:54;;;;;;;2.78;1.48;;;16.20;64.20;;;;;;5051353;28;20203;-67
2022/11/18 02:21:45;;;;;;;2.53;1.60;;;16.20;64.20;;;;;;5050137;28;20593;-67
2022/11/18 02:24:27;;;;;;;2.28;1.75;;;16.20;64.20;;;;;;5050968;28;20195;-68
2022/11/18 02:27:10;;;;;;;2.17;1.65;;;16.20;64.20;;;;;;5051130;28;20507;-69
2022/11/18 02:29:54;;;;;;;2.65;1.58;;;16.20;64.30;;;;;;5050262;28;20206;-69
2022/11/18 02:32:32;;;;;;;3.47;1.80;;;16.20;64.20;;;;;;5052143;28;20176;-68
2022/11/18 02:35:08;;;;;;;2.03;1.20;;;16.20;64.10;;;;;;5050574;28;20171;-68
2022/11/18 02:37:53;;;;;;;2.67;1.65;;;16.20;64.20;;;;;;5051005;28;20175;-67
2022/11/18 02:40:28;;;;;;;2.15;1.50;;;16.20;64.20;;;;;;5050686;28;20191;-67
2022/11/18 02:43:14;;;;;;;1.67;1.48;;;16.20;64.20;;;;;;5050242;28;20178;-67
2022/11/18 02:45:40;;;;;;;2.15;1.48;;;16.20;64.10;;;;;;5051955;28;20179;-68
2022/11/18 02:48:07;;;;;;;1.52;1.27;;;16.20;64.20;;;;;;5050630;28;20266;-68
2022/11/18 02:50:33;;;;;;;2.20;1.70;;;16.20;64.20;;;;;;5050388;28;20182;-68
2022/11/18 02:53:00;;;;;;;1.88;1.38;;;16.10;64.20;;;;;;5050909;28;20171;-68
2022/11/18 02:55:27;;;;;;;1.98;1.60;;;16.10;64.10;;;;;;5050912;28;20210;-68
2022/11/18 02:57:52;;;;;;;2.28;1.60;;;16.10;64.10;;;;;;5050016;28;20178;-68
2022/11/18 03:00:18;;;;;;;1.40;1.13;;;16.10;64.20;;;;;;5050494;28;20183;-68
2022/11/18 03:02:46;;;;;;;1.95;1.30;;;16.10;64.10;;;;;;5051224;28;20171;-68
2022/11/18 03:05:29;;;;;;;1.65;1.10;;;16.10;64.10;;;;;;5051889;28;20230;-68
2022/11/18 03:07:56;;;;;;;2.75;1.35;;;16.10;64.10;;;;;;5053994;28;20182;-68
2022/11/18 03:10:22;;;;;;;1.92;1.30;;;16.10;64.00;;;;;;5053430;28;20175;-68
2022/11/18 03:12:48;;;;;;;2.42;1.42;;;16.10;64.10;;;;;;5054444;28;20171;-68
2022/11/18 03:15:39;;;;;;;1.70;1.30;;;16.10;64.20;;;;;;5054730;28;20285;-67
2022/11/18 03:18:19;;;;;;;1.77;1.27;;;16.10;64.10;;;;;;5053277;28;20207;-67
2022/11/18 03:20:54;;;;;;;1.30;1.20;;;16.10;64.10;;;;;;5054190;28;20266;-67
2022/11/18 03:23:35;;;;;;;1.92;1.50;;;16.10;64.20;;;;;;5053718;28;20550;-67
2022/11/18 03:26:03;;;;;;;1.42;1.30;;;16.10;64.20;;;;;;5054310;28;20173;-68
2022/11/18 03:28:34;;;;;;;1.63;1.20;;;16.10;64.10;;;;;;5053910;28;20187;-68
2022/11/18 03:31:23;;;;;;;1.67;1.25;;;16.10;64.20;;;;;;5052660;28;20187;-68
2022/11/18 03:33:51;;;;;;;1.38;1.25;;;16.10;64.20;;;;;;5053912;28;20178;-68
2022/11/18 03:36:17;;;;;;;1.95;1.25;;;16.00;64.10;;;;;;5053612;28;20549;-67
2022/11/18 03:38:46;;;;;;;1.38;1.27;;;16.00;64.10;;;;;;5052982;28;20217;-67
2022/11/18 03:41:11;;;;;;;1.63;1.20;;;16.00;64.10;;;;;;5053529;28;20206;-67
2022/11/18 03:43:39;;;;;;;1.33;1.20;;;16.00;64.10;;;;;;5053584;28;20588;-67
2022/11/18 03:46:18;;;;;;;1.73;1.30;;;16.00;64.10;;;;;;5052655;28;20205;-68
2022/11/18 03:48:51;;;;;;;1.40;1.30;;;16.00;64.20;;;;;;5053656;28;20228;-68
2022/11/18 03:51:19;;;;;;;1.67;1.30;;;16.00;64.20;;;;;;5053361;28;20171;-68
2022/11/18 03:53:50;;;;;;;1.30;1.20;;;16.00;64.10;;;;;;5052766;28;20198;-68
2022/11/18 03:56:17;;;;;;;2.50;1.02;;;16.00;64.20;;;;;;5053358;28;20175;-68
2022/11/18 03:58:48;;;;;;;1.50;1.20;;;16.00;64.20;;;;;;5053605;28;20243;-68
2022/11/18 04:01:16;;;;;;;1.40;1.30;;;16.00;64.10;;;;;;5052159;28;20175;-67
2022/11/18 04:03:42;;;;;;;1.90;1.20;;;16.00;64.10;;;;;;5053401;28;20266;-68
2022/11/18 04:06:53;;;;;;;1.55;1.45;;;16.00;64.20;;;;;;5052389;28;20258;-68
2022/11/18 04:09:22;;;;;;;1.58;1.38;;;16.00;64.20;;;;;;5052875;28;20638;-68
2022/11/18 04:12:03;;;;;;;2.08;1.42;;;16.00;64.20;;;;;;5053020;28;20644;-68
2022/11/18 04:14:36;;;;;;;1.63;1.15;;;16.00;64.10;;;;;;5052410;28;20594;-67
2022/11/18 04:17:18;;;;;;;1.20;1.10;;;15.90;65.00;;;;;;5052744;28;20187;-67
2022/11/18 04:19:44;;;;;;;2.78;1.75;;;16.00;64.10;;;;;;5053616;28;20239;-67
2022/11/18 04:22:10;;;;;;;1.60;1.17;;;16.00;64.30;;;;;;5053090;28;20214;-67
2022/11/18 04:24:35;;;;;;;1.67;1.23;;;16.00;64.20;;;;;;5053990;28;20218;-68
2022/11/18 04:27:01;;;;;;;1.15;1.10;;;15.90;64.20;;;;;;5053807;28;20171;-68
2022/11/18 04:29:27;;;;;;;1.77;1.55;;;15.90;64.20;;;;;;5053609;28;20182;-68
2022/11/18 04:31:53;;;;;;;1.20;1.10;;;15.90;64.10;;;;;;5053950;28;20680;-68
2022/11/18 04:34:18;;;;;;;1.55;1.33;;;15.90;64.20;;;;;;5053153;28;20175;-68
2022/11/18 04:36:44;;;;;;;2.47;1.40;;;15.90;64.20;;;;;;5053809;28;20167;-68
2022/11/18 04:39:10;;;;;;;1.63;1.02;;;15.90;64.20;;;;;;5053661;28;20221;-67
2022/11/18 04:44:20;;;;;;;1.38;1.27;;;15.90;64.20;;;;;;5053416;28;20336;-67
2022/11/18 04:46:45;;;;;;;1.20;1.02;;;15.90;64.30;;;;;;5053668;28;20193;-67
2022/11/18 04:49:12;;;;;;;1.20;1.10;;;15.90;64.30;;;;;;5052541;28;20178;-68
2022/11/18 04:51:38;;;;;;;1.05;1.05;;;15.90;64.30;;;;;;5053495;28;20697;-68
2022/11/18 04:54:04;;;;;;;0.98;0.90;;;15.90;64.30;;;;;;5053545;28;20191;-68
2022/11/18 04:56:29;;;;;;;1.52;0.93;;;15.90;64.30;;;;;;5053040;28;20191;-68
2022/11/18 04:58:55;;;;;;;1.50;1.40;;;16.20;64.50;;;;;;5053351;28;20203;-67
2022/11/18 05:01:20;;;;;;;1.95;1.02;;;15.90;64.30;;;;;;5053124;28;20175;-68
2022/11/18 05:03:46;;;;;;;1.52;1.25;;;15.90;64.40;;;;;;5052525;28;20179;-68
2022/11/18 05:06:11;;;;;;;1.55;1.45;;;15.90;64.40;;;;;;5053093;28;20172;-68
2022/11/18 05:08:37;;;;;;;1.95;1.40;;;15.90;64.30;;;;;;5053550;28;20176;-68
2022/11/18 05:13:50;;;;;;;1.48;1.20;;;15.80;64.30;;;;;;5052818;28;20237;-67
2022/11/18 05:16:16;;;;;;;2.13;1.30;;;15.70;64.20;;;;;;5052475;28;20630;-67
2022/11/18 05:18:42;;;;;;;1.30;1.20;;;15.80;64.40;;;;;;5052458;28;20211;-67
2022/11/18 05:21:07;;;;;;;2.08;1.30;;;15.90;64.40;;;;;;5052823;28;20171;-67
2022/11/18 05:23:33;;;;;;;2.83;1.13;;;15.80;64.40;;;;;;5052276;28;20174;-67
2022/11/18 05:26:03;;;;;;;1.35;1.20;;;15.80;64.40;;;;;;5053001;28;20212;-68
2022/11/18 05:28:28;;;;;;;1.50;1.00;;;15.90;64.40;;;;;;5052827;28;20187;-68
2022/11/18 05:30:54;;;;;;;1.75;1.48;;;16.00;64.40;;;;;;5051988;28;20181;-68
2022/11/18 05:33:19;;;;;;;1.65;1.33;;;15.80;64.50;;;;;;5052735;28;20174;-68
2022/11/18 05:35:45;;;;;;;1.15;1.00;;;15.80;64.50;;;;;;5052707;28;20175;-68
2022/11/18 05:38:10;;;;;;;1.75;1.40;;;15.80;64.50;;;;;;5051712;28;20202;-67
2022/11/18 05:40:36;;;;;;;1.67;1.15;;;15.80;64.40;;;;;;5052631;28;20256;-67
2022/11/18 05:43:10;;;;;;;1.55;1.20;;;15.80;64.40;;;;;;5052527;28;20701;-67
2022/11/18 05:45:39;;;;;;;2.08;1.40;;;15.90;64.50;;;;;;5052065;28;20186;-67
2022/11/18 05:48:05;;;;;;;2.08;1.48;;;15.80;64.40;;;;;;5052499;28;20202;-68
2022/11/18 05:50:31;;;;;;;1.50;1.17;;;15.80;64.40;;;;;;5052720;28;20187;-68
2022/11/18 05:52:57;;;;;;;2.15;1.25;;;15.80;64.50;;;;;;5051958;28;20645;-68
2022/11/18 05:55:24;;;;;;;1.30;1.20;;;15.80;64.50;;;;;;5052510;28;20262;-67
2022/11/18 05:57:50;;;;;;;1.65;1.40;;;15.80;64.50;;;;;;5051066;28;20243;-68
2022/11/18 06:00:16;;;;;;;1.63;1.40;;;15.80;64.50;;;;;;5051530;28;20630;-67
2022/11/18 06:02:41;;;;;;;2.30;1.52;;;15.80;64.50;;;;;;5052636;28;20175;-67
2022/11/18 06:05:07;;;;;;;1.30;1.20;;;15.80;64.60;;;;;;5051158;28;20220;-68
2022/11/18 06:07:43;;;;;;;1.92;1.30;;;15.80;64.50;;;;;;5050828;28;20297;-68
2022/11/18 06:10:15;;;;;;;2.55;1.60;;;15.80;64.50;;;;;;5052087;28;20610;-68
2022/11/18 06:12:42;;;;;;;1.83;1.23;;;15.80;64.30;;;;;;5051693;28;20190;-68
2022/11/18 06:15:19;;;;;;;1.67;1.35;;;15.90;64.20;;;;;;5050949;28;20231;-67
2022/11/18 06:17:54;;;;;;;1.55;1.35;;;16.00;64.10;;;;;;5051539;28;20206;-67
2022/11/18 06:20:19;;;;;;;1.20;1.10;;;16.00;64.00;;;;;;5050315;28;20737;-67
2022/11/18 06:22:46;;;;;;;1.52;1.33;;;16.10;64.00;;;;;;5052329;28;20662;-67
2022/11/18 06:25:11;;;;;;;2.97;1.38;;;16.10;63.90;;;;;;5052270;28;20179;-68
2022/11/18 06:27:36;;;;;;;1.40;1.30;;;16.10;63.90;;;;;;5051780;28;20171;-68
2022/11/18 06:30:02;;;;;;;2.80;1.17;;;16.10;63.80;;;;;;5052080;28;20171;-68
2022/11/18 06:32:28;;;;;;;2.10;1.20;;;16.10;63.70;;;;;;5052531;28;20229;-68
2022/11/18 06:34:53;;;;;;;1.65;1.20;;;16.10;63.80;;;;;;5051565;28;20175;-68
2022/11/18 06:37:22;;;;;;;2.67;1.30;;;16.10;63.90;;;;;;5051970;28;20179;-67
2022/11/18 06:39:47;;;;;;;1.45;1.13;;;16.10;63.90;;;;;;5052253;28;20222;-67
2022/11/18 06:43:37;;;;;;;4.05;2.03;;;16.10;63.90;;;;;;5053539;28;20167;-67
2022/11/18 06:44:58;;;;;;;1.50;1.40;;;16.10;63.90;;;;;;5056055;28;20229;-67
2022/11/18 06:47:24;;;;;;;1.25;1.15;;;16.00;63.90;;;;;;5055465;28;20179;-68
2022/11/18 06:49:49;;;;;;;1.65;1.20;;;16.00;63.90;;;;;;5054932;28;20182;-68
2022/11/18 06:52:15;;;;;;;2.17;1.23;;;16.00;64.00;;;;;;5055411;28;20195;-68
2022/11/18 06:54:40;;;;;;;1.38;1.27;;;16.00;64.10;;;;;;5055953;28;20175;-68
2022/11/18 06:57:06;;;;;;;1.65;1.25;;;16.00;64.20;;;;;;5055074;28;20163;-68
2022/11/18 06:59:31;;;;;;;1.35;1.25;;;16.00;64.30;;;;;;5055893;28;20206;-68
2022/11/18 07:01:57;;;;;;;1.67;1.17;;;15.90;64.20;;;;;;5054996;28;20178;-68
2022/11/18 07:04:22;;;;;;;1.55;1.27;;;15.90;64.20;;;;;;5055263;28;20175;-67
2022/11/18 07:06:48;;;;;;;1.77;1.15;;;15.90;64.20;;;;;;5055879;28;20178;-68
2022/11/18 07:09:13;;;;;;;2.10;1.25;;;15.90;64.10;;;;;;5054733;28;20233;-69
2022/11/18 07:11:40;;;;;;;1.63;1.10;;;16.00;64.20;;;;;;5055391;28;20204;-68
2022/11/18 07:14:07;;;;;;;1.77;1.33;;;16.10;64.20;;;;;;5054917;28;20231;-68
2022/11/18 07:16:32;;;;;;;1.92;1.45;;;16.20;64.10;;;;;;5054594;28;20183;-67
2022/11/18 07:18:58;;;;;;;1.48;1.30;;;16.40;63.90;;;;;;5054116;28;20214;-67
2022/11/18 07:21:27;;;;;;;1.58;1.27;;;16.50;63.50;;;;;;5055354;28;20228;-67
2022/11/18 07:23:53;;;;;;;1.48;1.17;;;16.70;63.30;;;;;;5054881;28;20206;-68
2022/11/18 07:26:19;;;;;;;1.67;1.20;;;16.90;62.90;;;;;;5055020;28;20190;-68
2022/11/18 07:28:45;;;;;;;1.17;1.08;;;17.10;62.30;;;;;;5055258;28;20171;-68
2022/11/18 07:31:15;;;;;;;1.55;1.33;;;17.50;61.40;;;;;;5054154;28;20593;-68
2022/11/18 07:33:42;;;;;;;3.85;1.30;;;17.70;60.60;;;;;;5054955;28;20179;-68
2022/11/18 07:36:15;;;;;;;1.60;1.30;;;17.90;59.90;;;;;;5055085;28;20187;-68
2022/11/18 07:38:41;;;;;;;1.30;1.10;;;18.20;59.60;;;;;;5054345;28;20211;-67
2022/11/18 07:41:11;;;;;;;2.35;1.08;;;18.20;59.30;;;;;;5054862;28;20171;-67
2022/11/18 07:43:36;;;;;;;1.38;1.20;;;18.30;59.20;;;;;;5054880;28;20240;-67
2022/11/18 07:46:12;;;;;;;1.75;1.00;;;18.40;59.20;;;;;;5053603;28;20541;-67
2022/11/18 07:48:38;;;;;;;1.80;1.23;;;18.50;59.00;;;;;;5054940;28;20210;-68
2022/11/18 07:51:03;;;;;;;1.75;1.20;;;18.60;58.90;;;;;;5053926;28;20188;-68
2022/11/18 07:53:30;;;;;;;1.80;1.13;;;18.60;58.70;;;;;;5054882;28;20187;-68
2022/11/18 07:55:55;;;;;;;1.30;1.20;;;18.60;58.80;;;;;;5055009;28;20199;-68
2022/11/18 07:58:21;;;;;;;1.75;1.30;;;18.50;59.50;;;;;;5053532;28;20237;-67
2022/11/18 08:00:46;;;;;;;2.45;1.40;;;18.40;59.10;;;;;;5054849;28;20210;-68
2022/11/18 08:03:12;;;;;;;1.13;1.02;;;18.40;59.30;;;;;;5054642;28;20195;-68
2022/11/18 08:05:37;;;;;;;1.20;1.10;;;18.30;59.40;;;;;;5054050;28;20254;-68
2022/11/18 08:08:03;;;;;;;1.45;1.27;;;18.30;59.50;;;;;;5054235;28;20559;-69
2022/11/18 08:10:28;;;;;;;1.40;1.02;;;18.30;59.50;;;;;;5054773;28;20175;-68
2022/11/18 08:12:55;;;;;;;2.20;1.48;;;18.30;59.50;;;;;;5053888;28;20171;-68
2022/11/18 08:15:21;;;;;;;2.35;1.30;;;18.40;59.40;;;;;;5054142;28;20254;-68
2022/11/18 08:17:47;;;;;;;1.85;1.40;;;18.40;59.40;;;;;;5054621;28;20167;-67
2022/11/18 08:20:12;;;;;;;1.15;1.05;;;18.40;59.50;;;;;;5053531;28;20234;-67
2022/11/18 08:22:38;;;;;;;1.48;1.25;;;18.30;59.50;;;;;;5054538;28;20748;-68
2022/11/18 08:25:04;;;;;;;1.10;1.10;;;18.20;59.60;;;;;;5054175;28;20175;-68
2022/11/18 08:27:30;;;;;;;1.40;1.27;;;18.20;59.70;;;;;;5053699;28;20644;-68
2022/11/18 08:29:56;;;;;;;1.88;1.15;;;18.20;59.80;;;;;;5054408;28;20201;-69
2022/11/18 08:32:21;;;;;;;2.40;1.15;;;18.20;59.80;;;;;;5053849;28;20713;-68
2022/11/18 08:34:47;;;;;;;1.27;1.15;;;18.30;59.90;;;;;;5053349;28;20175;-68
2022/11/18 08:37:12;;;;;;;1.60;1.38;;;18.30;59.70;;;;;;5054105;28;20265;-67
2022/11/18 08:39:38;;;;;;;1.13;0.90;;;18.30;59.70;;;;;;5054091;28;20219;-68
2022/11/18 08:42:03;;;;;;;1.10;1.00;;;18.30;59.70;;;;;;5053101;28;20171;-68
2022/11/18 08:44:32;;;;;;;2.22;1.33;;;18.20;59.70;;;;;;5053960;28;20183;-69
2022/11/18 08:46:57;;;;;;;1.40;1.30;;;18.20;59.90;;;;;;5054169;28;20175;-68
2022/11/18 08:49:23;;;;;;;1.20;1.10;;;18.20;60.00;;;;;;5053032;28;20259;-68
2022/11/18 08:51:48;;;;;;;2.70;1.17;;;18.20;60.00;;;;;;5053922;28;20199;-68
2022/11/18 08:54:14;;;;;;;2.55;1.05;;;18.20;60.00;;;;;;5053528;28;20602;-68
2022/11/18 08:56:39;;;;;;;1.42;1.10;;;18.20;60.00;;;;;;5052951;28;20689;-68
2022/11/18 08:59:05;;;;;;;1.33;1.23;;;18.20;60.10;;;;;;5053320;28;20233;-68
2022/11/18 09:01:30;;;;;;;1.35;1.10;;;18.20;60.10;;;;;;5053110;28;20171;-68
2022/11/18 09:03:56;;;;;;;2.58;1.20;;;18.20;60.10;;;;;;5053334;28;20266;-68
2022/11/18 09:06:23;;;;;;;1.25;1.15;;;18.20;60.00;;;;;;5053362;28;20258;-68
2022/11/18 09:08:49;;;;;;;1.85;1.20;;;18.10;60.30;;;;;;5052824;28;20175;-69
2022/11/18 09:11:19;;;;;;;1.60;1.10;;;18.10;60.40;;;;;;5053413;28;20179;-68
2022/11/18 09:13:45;;;;;;;1.30;1.20;;;18.10;60.60;;;;;;5053165;28;20264;-68
2022/11/18 09:16:11;;;;;;;1.52;1.15;;;18.20;60.50;;;;;;5052579;28;20171;-67
2022/11/18 09:18:37;;;;;;;1.52;1.20;;;18.20;60.30;;;;;;5053502;28;20211;-67
2022/11/18 09:21:07;;;;;;;1.58;1.08;;;18.10;60.40;;;;;;5053062;28;20186;-67
2022/11/18 09:23:33;;;;;;;1.73;1.08;;;18.00;60.50;;;;;;5052826;28;20549;-68
2022/11/18 09:25:59;;;;;;;2.28;1.17;;;18.00;60.60;;;;;;5053201;28;20198;-69
2022/11/18 09:28:25;;;;;;;1.20;1.02;;;18.00;60.60;;;;;;5053229;28;20630;-69
2022/11/18 09:30:50;;;;;;;1.80;1.23;;;18.10;60.70;;;;;;5052682;28;20175;-68
2022/11/18 09:33:16;;;;;;;2.88;1.52;;;18.10;60.90;;;;;;5053019;28;20187;-68
2022/11/18 09:35:42;;;;;;;1.95;1.30;;;18.10;60.70;;;;;;5053256;28;20180;-68
2022/11/18 09:38:07;;;;;;;1.40;1.30;;;18.20;60.70;;;;;;5052028;28;20182;-67
2022/11/18 09:40:35;;;;;;;1.13;0.90;;;18.20;60.60;;;;;;5052945;28;20220;-67
2022/11/18 09:43:19;;;;;;;1.77;1.05;;;18.20;60.50;;;;;;5051462;28;20186;-68
2022/11/18 09:45:45;;;;;;;1.70;1.15;;;18.10;60.80;;;;;;5051152;28;20183;-68
2022/11/18 09:48:18;;;;;;;1.27;1.13;;;18.00;60.90;;;;;;5051567;28;20262;-68
2022/11/18 09:50:44;;;;;;;1.30;0.93;;;17.90;61.00;;;;;;5052153;28;20552;-68
2022/11/18 09:53:09;;;;;;;1.08;0.95;;;17.90;61.30;;;;;;5051432;28;20182;-68
2022/11/18 09:55:37;;;;;;;1.23;1.02;;;17.90;61.40;;;;;;5053013;28;20175;-68
2022/11/18 09:58:02;;;;;;;1.58;1.10;;;18.00;61.30;;;;;;5050715;28;20179;-68
2022/11/18 10:00:31;;;;;;;1.10;1.00;;;18.00;61.20;;;;;;5051646;28;20637;-68
2022/11/18 10:03:01;;;;;;;1.85;1.10;;;18.00;61.20;;;;;;5052650;28;20637;-68
2022/11/18 10:05:29;;;;;;;2.38;1.30;;;17.90;61.30;;;;;;5050958;28;20186;-68
2022/11/18 10:08:01;;;;;;;2.15;1.25;;;17.90;61.40;;;;;;5052644;28;20179;-69
2022/11/18 10:10:52;;;;;;;1.80;1.20;;;17.90;61.40;;;;;;5051734;28;20179;-68
2022/11/18 10:13:26;;;;;;;2.60;1.50;;;17.80;61.40;;;;;;5050523;28;20198;-68
2022/11/18 10:16:04;;;;;;;1.00;1.00;;;17.90;61.70;;;;;;5051736;28;20187;-67
2022/11/18 10:18:37;;;;;;;1.85;1.23;;;17.90;61.40;;;;;;5056691;28;20636;-67
2022/11/18 10:21:21;;;;;;;1.25;1.00;;;17.90;61.50;;;;;;5054536;28;20175;-67
2022/11/18 10:23:59;;;;;;;1.35;1.10;;;17.80;61.50;;;;;;5056512;28;20265;-68
2022/11/18 10:26:36;;;;;;;1.30;1.10;;;17.80;61.60;;;;;;5054726;28;20171;-68
2022/11/18 10:29:01;;;;;;;2.00;1.23;;;17.80;61.70;;;;;;5056235;28;20649;-68
2022/11/18 10:31:27;;;;;;;1.33;1.15;;;17.70;61.80;;;;;;5056625;28;20180;-68
2022/11/18 10:33:59;;;;;;;1.35;1.25;;;17.70;61.90;;;;;;5054639;28;20171;-68
2022/11/18 10:36:27;;;;;;;1.38;1.23;;;17.70;62.10;;;;;;5056483;28;20641;-67
2022/11/18 10:39:14;;;;;;;2.30;1.30;;;17.70;62.00;;;;;;5056222;28;20230;-67
2022/11/18 10:41:47;;;;;;;1.08;1.08;;;17.80;62.00;;;;;;5055831;28;20185;-68
2022/11/18 10:44:32;;;;;;;0.90;0.90;;;17.70;61.90;;;;;;5054958;28;20728;-67
2022/11/18 10:47:25;;;;;;;1.33;0.93;;;17.70;61.90;;;;;;5055735;28;20257;-68
2022/11/18 10:49:52;;;;;;;1.05;1.00;;;17.70;62.00;;;;;;5056130;28;20705;-68
2022/11/18 10:52:17;;;;;;;1.75;1.10;;;17.60;62.00;;;;;;5056153;28;20256;-69
2022/11/18 10:54:43;;;;;;;1.73;0.90;;;17.60;61.90;;;;;;5055509;28;20254;-68
2022/11/18 10:57:22;;;;;;;1.00;0.90;;;17.60;62.10;;;;;;5054515;28;20571;-68
2022/11/18 10:59:54;;;;;;;1.38;1.00;;;17.70;62.00;;;;;;5054878;28;20211;-68
2022/11/18 11:02:25;;;;;;;1.48;1.33;;;17.70;61.90;;;;;;5053968;28;20554;-68
2022/11/18 11:04:51;;;;;;;2.28;1.30;;;17.70;61.80;;;;;;5054996;28;20175;-68
2022/11/18 11:07:24;;;;;;;1.58;1.20;;;17.70;61.80;;;;;;5054520;28;20178;-68
2022/11/18 11:10:07;;;;;;;2.55;1.08;;;17.70;61.90;;;;;;5055230;28;20205;-68
2022/11/18 11:12:37;;;;;;;1.20;1.10;;;17.70;61.80;;;;;;5055865;28;20175;-68
2022/11/18 11:15:04;;;;;;;1.63;1.17;;;17.60;61.90;;;;;;5052494;28;20223;-68
2022/11/18 11:17:30;;;;;;;2.30;1.27;;;17.70;63.00;;;;;;5054536;28;20290;-68
2022/11/18 11:20:18;;;;;;;1.25;1.15;;;17.70;62.10;;;;;;5053094;28;20217;-67
2022/11/18 11:22:44;;;;;;;1.58;1.08;;;17.70;61.90;;;;;;5053665;28;20175;-68
2022/11/18 11:26:00;;;;;;;1.23;0.95;;;17.80;61.90;;;;;;5054001;28;20171;-68
2022/11/18 11:28:36;;;;;;;2.05;1.20;;;17.80;61.80;;;;;;5015530;28;20643;-68
2022/11/18 11:31:20;;;;;;;1.30;1.20;;;17.70;61.70;;;;;;5014711;28;20179;-68
2022/11/18 11:34:14;;;;;;;2.00;1.10;;;17.70;61.90;;;;;;5048647;28;20187;-68
2022/11/18 11:36:50;;;;;;;1.52;1.30;;;17.70;61.90;;;;;;5052358;28;20187;-67
2022/11/18 11:39:53;;;;;;;1.40;1.13;;;17.70;62.00;;;;;;5052724;28;20704;-67
2022/11/18 11:42:29;;;;;;;1.90;1.20;;;17.70;62.10;;;;;;5053856;28;20189;-68
2022/11/18 11:45:08;;;;;;;1.10;1.00;;;17.70;62.20;;;;;;5052289;28;20182;-68
2022/11/18 11:47:55;;;;;;;1.73;1.20;;;17.70;62.10;;;;;;5052755;28;20533;-68
2022/11/18 11:50:52;;;;;;;2.35;1.23;;;17.70;62.10;;;;;;5051947;28;20224;-68
2022/11/18 11:53:27;;;;;;;1.23;1.13;;;17.70;62.10;;;;;;5052628;28;20168;-68
2022/11/18 11:56:13;;;;;;;2.25;1.23;;;17.70;62.20;;;;;;5052767;28;20212;-68
2022/11/18 11:59:26;;;;;;;1.15;1.05;;;17.60;62.10;;;;;;5052093;28;20218;-68
2022/11/18 12:02:01;;;;;;;2.00;1.42;;;17.60;62.20;;;;;;5031617;28;20664;-68
2022/11/18 12:04:29;;;;;;;1.90;1.23;;;17.60;62.40;;;;;;5030923;28;20172;-68
2022/11/18 12:06:54;;;;;;;1.00;0.90;;;17.60;62.40;;;;;;5033978;28;20269;-69
2022/11/18 12:09:20;;;;;;;2.28;1.08;;;17.70;62.40;;;;;;5052337;28;20225;-69
2022/11/18 12:11:50;;;;;;;1.63;1.20;;;17.70;62.10;;;;;;5053108;28;20619;-68
2022/11/18 12:14:30;;;;;;;1.85;1.52;;;17.70;62.20;;;;;;5016664;28;1061890;-68
2022/11/18 12:17:21;;;;;;;1.67;0.90;;;17.70;62.20;;;;;;5053223;28;20191;-67
2022/11/18 12:19:46;;;;;;;1.25;1.10;;;17.60;62.20;;;;;;5052685;28;20278;-67
2022/11/18 12:22:12;;;;;;;1.30;1.20;;;17.60;62.30;;;;;;5054172;28;20622;-67
2022/11/18 12:24:39;;;;;;;1.23;1.05;;;17.60;62.20;;;;;;5053381;28;20187;-68
2022/11/18 12:27:22;;;;;;;1.42;1.33;;;17.60;62.20;;;;;;5053353;28;20179;-68
2022/11/18 12:29:47;;;;;;;1.20;1.10;;;17.70;62.40;;;;;;5054409;28;20261;-68
2022/11/18 12:32:26;;;;;;;1.30;1.20;;;17.80;62.20;;;;;;5053885;28;20271;-68
2022/11/18 12:34:59;;;;;;;1.25;1.10;;;17.80;62.00;;;;;;5053018;28;20709;-68
2022/11/18 12:37:25;;;;;;;2.17;1.10;;;17.70;62.00;;;;;;5053109;28;20591;-68
2022/11/18 12:39:59;;;;;;;3.25;1.80;;;17.70;62.10;;;;;;5052483;28;20199;-68
2022/11/18 12:45:40;;;;;;;2.15;1.10;;;17.60;62.30;;;;;;5054076;28;20592;-68
2022/11/18 12:48:30;;;;;;;1.92;1.05;;;17.60;62.40;;;;;;5052881;28;20177;-68
2022/11/18 12:51:17;;;;;;;1.80;1.27;;;17.60;62.40;;;;;;5051060;28;20250;-69
2022/11/18 12:53:44;;;;;;;2.25;1.30;;;17.50;62.50;;;;;;5051931;28;20183;-68
2022/11/18 12:56:16;;;;;;;1.35;1.20;;;17.60;62.60;;;;;;5053492;28;20190;-68
2022/11/18 12:58:46;;;;;;;2.58;1.15;;;17.60;62.50;;;;;;5053525;28;20203;-68
2022/11/18 13:01:12;;;;;;;1.85;1.45;;;17.60;62.50;;;;;;5052935;28;20171;-68
2022/11/18 13:03:38;;;;;;;1.75;1.27;;;17.60;62.50;;;;;;5053747;28;20305;-68
2022/11/18 13:06:14;;;;;;;1.20;1.05;;;17.60;62.50;;;;;;5053364;28;20213;-68
2022/11/18 13:08:40;;;;;;;1.90;1.40;;;17.60;62.40;;;;;;5051760;28;20257;-68
2022/11/18 13:19:26;;;;;;;1.40;1.20;;;17.50;62.60;;;;;;5053306;28;20217;-67
2022/11/18 13:24:46;;;;;;;1.42;1.33;;;17.50;62.60;;;;;;5053495;28;20683;-68
2022/11/18 13:27:44;;;;;;;2.35;1.50;;;17.50;62.60;;;;;;5052979;28;20253;-68
2022/11/18 13:30:11;;;;;;;1.48;1.30;;;17.50;62.70;;;;;;5051215;28;20210;-69